Bristol, West Virginia
Current Conditions -  °F | °C
As of 11:53 AM on Thursday 23 Oct 2014 (Local Time) from KCKB Reporting Station
Overcast Overcast  
Wind Chill: 50°   Ceiling: 2000
Heat Index: 50°   Visibility: 10mi
Dew Point: 43°   Wind: 6mph
Humidity: 77%   Direction: 280°W
Pressure: 30.15"   Gusts: NA
Location:  39.29°N, 80.52°W
Report Text: KCKB 231553Z 28005KT 10SM BKN020 OVC026 10/06 A3015 RMK AO2 SLP207 T01000061
Loading
Personal Weather Stations






























Interactive Weather Map
Tropical Storm Tracking
New forecast layout! Learn more

10-Day Weather Forecast

Advertisements
Track Severe Weather on mobile